sensor_id;sensor_type;location;lat;lon;timestamp;P1;durP1;ratioP1;P2;durP2;ratioP2
75772;SDS011;64381;0.000;0.000;2023-03-14T00:01:08;2.97;;;1.10;;
75772;SDS011;64381;0.000;0.000;2023-03-14T00:03:39;3.20;;;1.17;;
75772;SDS011;64381;0.000;0.000;2023-03-14T00:06:05;3.00;;;1.50;;
75772;SDS011;64381;0.000;0.000;2023-03-14T00:08:31;2.90;;;1.00;;
75772;SDS011;64381;0.000;0.000;2023-03-14T00:10:56;3.03;;;1.08;;
75772;SDS011;64381;0.000;0.000;2023-03-14T00:13:22;3.00;;;1.30;;
75772;SDS011;64381;0.000;0.000;2023-03-14T00:15:47;3.30;;;1.13;;
75772;SDS011;64381;0.000;0.000;2023-03-14T00:18:12;3.43;;;1.10;;
75772;SDS011;64381;0.000;0.000;2023-03-14T00:20:37;3.50;;;1.30;;
75772;SDS011;64381;0.000;0.000;2023-03-14T00:23:03;2.70;;;1.00;;
75772;SDS011;64381;0.000;0.000;2023-03-14T00:25:28;3.00;;;1.00;;
75772;SDS011;64381;0.000;0.000;2023-03-14T00:27:53;2.87;;;1.20;;
75772;SDS011;64381;0.000;0.000;2023-03-14T00:30:18;3.47;;;1.27;;
75772;SDS011;64381;0.000;0.000;2023-03-14T00:32:44;2.50;;;1.07;;
75772;SDS011;64381;0.000;0.000;2023-03-14T00:35:09;3.30;;;1.73;;
75772;SDS011;64381;0.000;0.000;2023-03-14T00:37:34;3.17;;;1.30;;
75772;SDS011;64381;0.000;0.000;2023-03-14T00:40:00;2.70;;;1.10;;
75772;SDS011;64381;0.000;0.000;2023-03-14T00:42:25;3.10;;;1.30;;
75772;SDS011;64381;0.000;0.000;2023-03-14T00:44:50;3.13;;;1.10;;
75772;SDS011;64381;0.000;0.000;2023-03-14T00:47:16;2.63;;;1.00;;
75772;SDS011;64381;0.000;0.000;2023-03-14T00:49:41;3.30;;;1.20;;
75772;SDS011;64381;0.000;0.000;2023-03-14T00:52:06;3.30;;;1.17;;
75772;SDS011;64381;0.000;0.000;2023-03-14T00:54:31;3.00;;;1.10;;
75772;SDS011;64381;0.000;0.000;2023-03-14T00:56:57;3.10;;;1.30;;
75772;SDS011;64381;0.000;0.000;2023-03-14T00:59:22;2.60;;;1.20;;
75772;SDS011;64381;0.000;0.000;2023-03-14T01:01:47;3.13;;;1.23;;
75772;SDS011;64381;0.000;0.000;2023-03-14T01:04:13;2.80;;;1.13;;
75772;SDS011;64381;0.000;0.000;2023-03-14T01:06:38;3.27;;;1.30;;
75772;SDS011;64381;0.000;0.000;2023-03-14T01:09:04;2.70;;;1.10;;
75772;SDS011;64381;0.000;0.000;2023-03-14T01:11:30;2.70;;;1.20;;
75772;SDS011;64381;0.000;0.000;2023-03-14T01:13:57;2.60;;;1.17;;
75772;SDS011;64381;0.000;0.000;2023-03-14T01:16:23;2.53;;;0.97;;
75772;SDS011;64381;0.000;0.000;2023-03-14T01:18:50;2.60;;;1.02;;
75772;SDS011;64381;0.000;0.000;2023-03-14T01:21:17;3.10;;;1.30;;
75772;SDS011;64381;0.000;0.000;2023-03-14T01:23:48;3.20;;;1.23;;
75772;SDS011;64381;0.000;0.000;2023-03-14T01:26:15;2.65;;;1.13;;
75772;SDS011;64381;0.000;0.000;2023-03-14T01:28:42;2.67;;;1.00;;
75772;SDS011;64381;0.000;0.000;2023-03-14T01:31:08;2.70;;;1.00;;
75772;SDS011;64381;0.000;0.000;2023-03-14T01:33:35;2.38;;;0.90;;
75772;SDS011;64381;0.000;0.000;2023-03-14T01:36:01;2.70;;;1.20;;
75772;SDS011;64381;0.000;0.000;2023-03-14T01:38:26;3.33;;;1.00;;
75772;SDS011;64381;0.000;0.000;2023-03-14T01:40:51;3.23;;;1.20;;
75772;SDS011;64381;0.000;0.000;2023-03-14T01:43:17;2.90;;;1.13;;
75772;SDS011;64381;0.000;0.000;2023-03-14T01:48:31;2.70;;;0.90;;
75772;SDS011;64381;0.000;0.000;2023-03-14T01:51:06;3.42;;;1.13;;
75772;SDS011;64381;0.000;0.000;2023-03-14T01:53:34;2.80;;;1.10;;
75772;SDS011;64381;0.000;0.000;2023-03-14T01:56:01;3.00;;;1.30;;
75772;SDS011;64381;0.000;0.000;2023-03-14T01:58:27;3.00;;;1.20;;
75772;SDS011;64381;0.000;0.000;2023-03-14T02:00:55;3.78;;;1.20;;
75772;SDS011;64381;0.000;0.000;2023-03-14T02:03:23;2.92;;;1.30;;
75772;SDS011;64381;0.000;0.000;2023-03-14T02:05:51;2.90;;;1.13;;
75772;SDS011;64381;0.000;0.000;2023-03-14T02:08:20;4.13;;;1.10;;
75772;SDS011;64381;0.000;0.000;2023-03-14T02:10:47;2.55;;;1.02;;
75772;SDS011;64381;0.000;0.000;2023-03-14T02:13:14;2.90;;;1.27;;
75772;SDS011;64381;0.000;0.000;2023-03-14T02:15:41;3.03;;;1.10;;
75772;SDS011;64381;0.000;0.000;2023-03-14T02:18:07;2.70;;;1.10;;
75772;SDS011;64381;0.000;0.000;2023-03-14T02:25:58;2.63;;;1.05;;
75772;SDS011;64381;0.000;0.000;2023-03-14T02:28:28;3.20;;;1.10;;
75772;SDS011;64381;0.000;0.000;2023-03-14T02:30:53;3.30;;;1.30;;
75772;SDS011;64381;0.000;0.000;2023-03-14T02:33:19;2.57;;;1.20;;
75772;SDS011;64381;0.000;0.000;2023-03-14T02:35:46;2.35;;;1.02;;
75772;SDS011;64381;0.000;0.000;2023-03-14T02:38:36;2.78;;;1.20;;
75772;SDS011;64381;0.000;0.000;2023-03-14T02:41:23;2.83;;;1.17;;
75772;SDS011;64381;0.000;0.000;2023-03-14T02:43:48;2.97;;;1.20;;
75772;SDS011;64381;0.000;0.000;2023-03-14T02:46:14;3.17;;;1.10;;
75772;SDS011;64381;0.000;0.000;2023-03-14T02:48:43;2.63;;;1.10;;
75772;SDS011;64381;0.000;0.000;2023-03-14T02:51:18;2.57;;;0.93;;
75772;SDS011;64381;0.000;0.000;2023-03-14T02:53:43;2.85;;;1.27;;
75772;SDS011;64381;0.000;0.000;2023-03-14T02:56:09;2.80;;;1.20;;
75772;SDS011;64381;0.000;0.000;2023-03-14T02:58:35;2.60;;;1.00;;
75772;SDS011;64381;0.000;0.000;2023-03-14T03:01:01;2.78;;;1.08;;
75772;SDS011;64381;0.000;0.000;2023-03-14T03:03:26;2.80;;;1.10;;
75772;SDS011;64381;0.000;0.000;2023-03-14T03:05:52;2.60;;;1.00;;
75772;SDS011;64381;0.000;0.000;2023-03-14T03:08:19;2.72;;;1.10;;
75772;SDS011;64381;0.000;0.000;2023-03-14T03:10:44;2.93;;;1.20;;
75772;SDS011;64381;0.000;0.000;2023-03-14T03:13:10;2.70;;;1.00;;
75772;SDS011;64381;0.000;0.000;2023-03-14T03:15:35;2.70;;;1.20;;
75772;SDS011;64381;0.000;0.000;2023-03-14T03:18:00;2.93;;;0.90;;
75772;SDS011;64381;0.000;0.000;2023-03-14T03:20:25;2.67;;;1.20;;
75772;SDS011;64381;0.000;0.000;2023-03-14T03:22:51;2.83;;;0.80;;
75772;SDS011;64381;0.000;0.000;2023-03-14T03:25:16;2.80;;;1.00;;
75772;SDS011;64381;0.000;0.000;2023-03-14T03:27:42;2.50;;;1.10;;
75772;SDS011;64381;0.000;0.000;2023-03-14T03:30:07;2.77;;;1.10;;
75772;SDS011;64381;0.000;0.000;2023-03-14T03:32:33;2.38;;;1.00;;
75772;SDS011;64381;0.000;0.000;2023-03-14T03:34:59;2.40;;;0.90;;
75772;SDS011;64381;0.000;0.000;2023-03-14T03:37:24;2.70;;;1.07;;
75772;SDS011;64381;0.000;0.000;2023-03-14T03:39:50;2.50;;;1.03;;
75772;SDS011;64381;0.000;0.000;2023-03-14T03:42:15;2.65;;;1.08;;
75772;SDS011;64381;0.000;0.000;2023-03-14T03:44:40;2.60;;;1.00;;
75772;SDS011;64381;0.000;0.000;2023-03-14T03:47:06;2.90;;;1.00;;
75772;SDS011;64381;0.000;0.000;2023-03-14T03:49:31;2.60;;;1.00;;
75772;SDS011;64381;0.000;0.000;2023-03-14T03:51:57;3.30;;;1.10;;
75772;SDS011;64381;0.000;0.000;2023-03-14T03:54:23;2.30;;;0.80;;
75772;SDS011;64381;0.000;0.000;2023-03-14T03:56:48;2.30;;;0.80;;
75772;SDS011;64381;0.000;0.000;2023-03-14T03:59:13;2.40;;;0.82;;
75772;SDS011;64381;0.000;0.000;2023-03-14T04:01:38;2.63;;;1.10;;
75772;SDS011;64381;0.000;0.000;2023-03-14T04:04:04;2.53;;;0.90;;
75772;SDS011;64381;0.000;0.000;2023-03-14T04:06:29;2.63;;;0.90;;
75772;SDS011;64381;0.000;0.000;2023-03-14T04:08:54;2.70;;;1.00;;
75772;SDS011;64381;0.000;0.000;2023-03-14T04:11:20;2.30;;;0.80;;
75772;SDS011;64381;0.000;0.000;2023-03-14T04:13:45;2.57;;;1.10;;
75772;SDS011;64381;0.000;0.000;2023-03-14T04:16:14;2.70;;;1.00;;
75772;SDS011;64381;0.000;0.000;2023-03-14T04:18:41;2.95;;;1.08;;
75772;SDS011;64381;0.000;0.000;2023-03-14T04:21:07;2.70;;;1.00;;
75772;SDS011;64381;0.000;0.000;2023-03-14T04:23:32;2.47;;;0.90;;
75772;SDS011;64381;0.000;0.000;2023-03-14T04:25:57;3.20;;;0.93;;
75772;SDS011;64381;0.000;0.000;2023-03-14T04:28:22;2.40;;;1.00;;
75772;SDS011;64381;0.000;0.000;2023-03-14T04:30:47;2.50;;;1.00;;
75772;SDS011;64381;0.000;0.000;2023-03-14T04:33:13;2.60;;;0.90;;
75772;SDS011;64381;0.000;0.000;2023-03-14T04:35:38;3.30;;;1.03;;
75772;SDS011;64381;0.000;0.000;2023-03-14T04:38:03;2.70;;;1.03;;
75772;SDS011;64381;0.000;0.000;2023-03-14T04:40:28;2.43;;;0.90;;
75772;SDS011;64381;0.000;0.000;2023-03-14T04:42:53;2.90;;;1.10;;
75772;SDS011;64381;0.000;0.000;2023-03-14T04:45:19;2.50;;;1.00;;
75772;SDS011;64381;0.000;0.000;2023-03-14T04:47:44;2.70;;;1.00;;
75772;SDS011;64381;0.000;0.000;2023-03-14T04:50:09;2.80;;;1.00;;
75772;SDS011;64381;0.000;0.000;2023-03-14T04:52:35;3.27;;;1.10;;
75772;SDS011;64381;0.000;0.000;2023-03-14T04:55:00;2.50;;;0.95;;
75772;SDS011;64381;0.000;0.000;2023-03-14T04:57:26;2.77;;;1.10;;
75772;SDS011;64381;0.000;0.000;2023-03-14T04:59:51;2.90;;;1.10;;
75772;SDS011;64381;0.000;0.000;2023-03-14T05:02:16;2.37;;;0.93;;
75772;SDS011;64381;0.000;0.000;2023-03-14T05:04:41;2.70;;;0.97;;
75772;SDS011;64381;0.000;0.000;2023-03-14T05:07:07;2.73;;;0.87;;
75772;SDS011;64381;0.000;0.000;2023-03-14T05:09:32;2.80;;;1.00;;
75772;SDS011;64381;0.000;0.000;2023-03-14T05:11:57;2.60;;;0.90;;
75772;SDS011;64381;0.000;0.000;2023-03-14T05:14:22;2.70;;;0.90;;
75772;SDS011;64381;0.000;0.000;2023-03-14T05:16:47;2.50;;;1.00;;
75772;SDS011;64381;0.000;0.000;2023-03-14T05:19:13;2.40;;;0.90;;
75772;SDS011;64381;0.000;0.000;2023-03-14T05:21:38;2.53;;;1.00;;
75772;SDS011;64381;0.000;0.000;2023-03-14T05:24:03;2.67;;;0.87;;
75772;SDS011;64381;0.000;0.000;2023-03-14T05:26:29;2.63;;;1.00;;
75772;SDS011;64381;0.000;0.000;2023-03-14T05:28:55;2.20;;;0.85;;
75772;SDS011;64381;0.000;0.000;2023-03-14T05:31:20;2.70;;;1.00;;
75772;SDS011;64381;0.000;0.000;2023-03-14T05:33:46;2.20;;;0.83;;
75772;SDS011;64381;0.000;0.000;2023-03-14T05:36:11;2.80;;;1.00;;
75772;SDS011;64381;0.000;0.000;2023-03-14T05:38:36;2.60;;;0.90;;
75772;SDS011;64381;0.000;0.000;2023-03-14T05:41:02;2.70;;;1.00;;
75772;SDS011;64381;0.000;0.000;2023-03-14T05:43:27;2.60;;;1.00;;
75772;SDS011;64381;0.000;0.000;2023-03-14T05:45:52;2.83;;;1.00;;
75772;SDS011;64381;0.000;0.000;2023-03-14T05:48:17;2.47;;;0.90;;
75772;SDS011;64381;0.000;0.000;2023-03-14T05:50:43;2.60;;;0.90;;
75772;SDS011;64381;0.000;0.000;2023-03-14T05:53:08;2.30;;;0.73;;
75772;SDS011;64381;0.000;0.000;2023-03-14T05:55:33;2.53;;;0.90;;
75772;SDS011;64381;0.000;0.000;2023-03-14T05:57:58;2.67;;;1.00;;
75772;SDS011;64381;0.000;0.000;2023-03-14T06:00:23;2.20;;;0.70;;
75772;SDS011;64381;0.000;0.000;2023-03-14T06:02:49;2.60;;;1.03;;
75772;SDS011;64381;0.000;0.000;2023-03-14T06:05:14;2.77;;;1.00;;
75772;SDS011;64381;0.000;0.000;2023-03-14T06:07:39;2.50;;;0.90;;
75772;SDS011;64381;0.000;0.000;2023-03-14T06:10:04;2.80;;;0.90;;
75772;SDS011;64381;0.000;0.000;2023-03-14T06:12:30;2.40;;;0.90;;
75772;SDS011;64381;0.000;0.000;2023-03-14T06:14:55;2.93;;;0.90;;
75772;SDS011;64381;0.000;0.000;2023-03-14T06:17:21;2.60;;;1.03;;
75772;SDS011;64381;0.000;0.000;2023-03-14T06:19:46;2.23;;;0.83;;
75772;SDS011;64381;0.000;0.000;2023-03-14T06:22:11;2.37;;;0.90;;
75772;SDS011;64381;0.000;0.000;2023-03-14T06:24:37;2.60;;;0.90;;
75772;SDS011;64381;0.000;0.000;2023-03-14T06:27:02;2.43;;;1.00;;
75772;SDS011;64381;0.000;0.000;2023-03-14T06:29:28;2.30;;;0.88;;
75772;SDS011;64381;0.000;0.000;2023-03-14T06:31:54;2.55;;;0.90;;
75772;SDS011;64381;0.000;0.000;2023-03-14T06:34:19;2.50;;;0.80;;
75772;SDS011;64381;0.000;0.000;2023-03-14T06:36:45;2.60;;;0.90;;
75772;SDS011;64381;0.000;0.000;2023-03-14T06:39:10;2.50;;;1.10;;
75772;SDS011;64381;0.000;0.000;2023-03-14T06:41:35;2.87;;;1.00;;
75772;SDS011;64381;0.000;0.000;2023-03-14T06:44:00;2.40;;;0.90;;
75772;SDS011;64381;0.000;0.000;2023-03-14T06:46:25;2.80;;;1.10;;
75772;SDS011;64381;0.000;0.000;2023-03-14T06:48:51;2.40;;;0.90;;
75772;SDS011;64381;0.000;0.000;2023-03-14T06:51:16;3.53;;;0.93;;
75772;SDS011;64381;0.000;0.000;2023-03-14T06:53:41;2.50;;;0.90;;
75772;SDS011;64381;0.000;0.000;2023-03-14T06:56:06;2.50;;;1.10;;
75772;SDS011;64381;0.000;0.000;2023-03-14T06:58:32;2.50;;;0.88;;
75772;SDS011;64381;0.000;0.000;2023-03-14T07:00:58;2.33;;;0.90;;
75772;SDS011;64381;0.000;0.000;2023-03-14T07:03:23;2.50;;;0.90;;
75772;SDS011;64381;0.000;0.000;2023-03-14T07:05:48;2.17;;;0.80;;
75772;SDS011;64381;0.000;0.000;2023-03-14T07:08:13;2.43;;;0.80;;
75772;SDS011;64381;0.000;0.000;2023-03-14T07:10:39;2.60;;;0.97;;
75772;SDS011;64381;0.000;0.000;2023-03-14T07:13:04;2.73;;;0.80;;
75772;SDS011;64381;0.000;0.000;2023-03-14T07:15:29;2.13;;;0.70;;
75772;SDS011;64381;0.000;0.000;2023-03-14T07:17:55;2.40;;;0.90;;
75772;SDS011;64381;0.000;0.000;2023-03-14T07:20:20;2.50;;;0.90;;
75772;SDS011;64381;0.000;0.000;2023-03-14T07:22:48;2.20;;;0.70;;
75772;SDS011;64381;0.000;0.000;2023-03-14T07:25:14;2.27;;;0.70;;
75772;SDS011;64381;0.000;0.000;2023-03-14T07:27:39;2.22;;;0.80;;
75772;SDS011;64381;0.000;0.000;2023-03-14T07:30:05;2.30;;;0.73;;
75772;SDS011;64381;0.000;0.000;2023-03-14T07:32:30;2.00;;;0.70;;
75772;SDS011;64381;0.000;0.000;2023-03-14T07:34:56;2.77;;;0.97;;
75772;SDS011;64381;0.000;0.000;2023-03-14T07:37:21;2.40;;;0.73;;
75772;SDS011;64381;0.000;0.000;2023-03-14T07:39:46;2.20;;;0.80;;
75772;SDS011;64381;0.000;0.000;2023-03-14T07:42:11;2.50;;;0.90;;
75772;SDS011;64381;0.000;0.000;2023-03-14T07:44:37;2.53;;;0.90;;
75772;SDS011;64381;0.000;0.000;2023-03-14T07:47:02;2.40;;;1.00;;
75772;SDS011;64381;0.000;0.000;2023-03-14T07:49:27;2.50;;;0.70;;
75772;SDS011;64381;0.000;0.000;2023-03-14T07:51:52;2.00;;;0.70;;
75772;SDS011;64381;0.000;0.000;2023-03-14T07:54:18;2.50;;;0.97;;
75772;SDS011;64381;0.000;0.000;2023-03-14T07:56:43;2.90;;;0.90;;
75772;SDS011;64381;0.000;0.000;2023-03-14T07:59:08;2.17;;;0.80;;
75772;SDS011;64381;0.000;0.000;2023-03-14T08:01:33;2.27;;;0.80;;
75772;SDS011;64381;0.000;0.000;2023-03-14T08:03:58;2.40;;;0.80;;
75772;SDS011;64381;0.000;0.000;2023-03-14T08:06:24;2.93;;;0.80;;
75772;SDS011;64381;0.000;0.000;2023-03-14T08:08:49;2.60;;;0.90;;
75772;SDS011;64381;0.000;0.000;2023-03-14T08:11:14;2.37;;;0.90;;
75772;SDS011;64381;0.000;0.000;2023-03-14T08:13:40;2.70;;;1.00;;
75772;SDS011;64381;0.000;0.000;2023-03-14T08:16:05;2.90;;;0.90;;
75772;SDS011;64381;0.000;0.000;2023-03-14T08:18:30;2.10;;;0.80;;
75772;SDS011;64381;0.000;0.000;2023-03-14T08:20:56;2.27;;;0.80;;
75772;SDS011;64381;0.000;0.000;2023-03-14T08:23:21;2.28;;;0.90;;
75772;SDS011;64381;0.000;0.000;2023-03-14T08:25:48;2.00;;;0.60;;
75772;SDS011;64381;0.000;0.000;2023-03-14T08:28:14;2.60;;;1.00;;
75772;SDS011;64381;0.000;0.000;2023-03-14T08:30:39;2.50;;;1.00;;
75772;SDS011;64381;0.000;0.000;2023-03-14T08:33:05;2.40;;;0.80;;
75772;SDS011;64381;0.000;0.000;2023-03-14T08:35:31;2.00;;;0.60;;
75772;SDS011;64381;0.000;0.000;2023-03-14T08:37:56;2.50;;;0.80;;
75772;SDS011;64381;0.000;0.000;2023-03-14T08:40:21;2.30;;;0.90;;
75772;SDS011;64381;0.000;0.000;2023-03-14T08:42:47;2.10;;;0.70;;
75772;SDS011;64381;0.000;0.000;2023-03-14T08:45:13;2.30;;;0.80;;
75772;SDS011;64381;0.000;0.000;2023-03-14T08:47:39;2.33;;;0.90;;
75772;SDS011;64381;0.000;0.000;2023-03-14T08:50:05;2.30;;;0.80;;
75772;SDS011;64381;0.000;0.000;2023-03-14T08:52:31;2.50;;;0.90;;
75772;SDS011;64381;0.000;0.000;2023-03-14T08:54:57;3.53;;;0.90;;
75772;SDS011;64381;0.000;0.000;2023-03-14T08:57:23;2.47;;;0.90;;
75772;SDS011;64381;0.000;0.000;2023-03-14T08:59:48;2.30;;;0.90;;
75772;SDS011;64381;0.000;0.000;2023-03-14T09:02:13;2.20;;;0.80;;
75772;SDS011;64381;0.000;0.000;2023-03-14T09:04:38;2.30;;;0.80;;
75772;SDS011;64381;0.000;0.000;2023-03-14T09:07:04;2.50;;;0.80;;
75772;SDS011;64381;0.000;0.000;2023-03-14T09:09:29;2.20;;;0.70;;
75772;SDS011;64381;0.000;0.000;2023-03-14T09:11:54;2.00;;;0.60;;
75772;SDS011;64381;0.000;0.000;2023-03-14T09:14:20;1.90;;;0.60;;
75772;SDS011;64381;0.000;0.000;2023-03-14T09:16:45;2.40;;;0.87;;
75772;SDS011;64381;0.000;0.000;2023-03-14T09:19:10;2.10;;;0.60;;
75772;SDS011;64381;0.000;0.000;2023-03-14T09:21:35;2.07;;;0.60;;
75772;SDS011;64381;0.000;0.000;2023-03-14T09:24:01;2.10;;;0.70;;
75772;SDS011;64381;0.000;0.000;2023-03-14T09:26:26;2.00;;;0.70;;
75772;SDS011;64381;0.000;0.000;2023-03-14T09:28:51;2.13;;;0.80;;
75772;SDS011;64381;0.000;0.000;2023-03-14T09:31:17;2.23;;;0.70;;
75772;SDS011;64381;0.000;0.000;2023-03-14T09:33:42;2.20;;;0.70;;
75772;SDS011;64381;0.000;0.000;2023-03-14T09:36:07;2.10;;;0.70;;
75772;SDS011;64381;0.000;0.000;2023-03-14T09:38:33;2.28;;;0.80;;
75772;SDS011;64381;0.000;0.000;2023-03-14T09:40:59;2.30;;;0.90;;
75772;SDS011;64381;0.000;0.000;2023-03-14T09:43:26;2.50;;;0.80;;
75772;SDS011;64381;0.000;0.000;2023-03-14T09:45:56;1.98;;;0.68;;
75772;SDS011;64381;0.000;0.000;2023-03-14T09:48:27;2.22;;;0.63;;
75772;SDS011;64381;0.000;0.000;2023-03-14T09:50:55;2.97;;;0.70;;
75772;SDS011;64381;0.000;0.000;2023-03-14T09:53:32;2.20;;;0.70;;
75772;SDS011;64381;0.000;0.000;2023-03-14T09:56:04;2.00;;;0.77;;
75772;SDS011;64381;0.000;0.000;2023-03-14T09:58:36;2.38;;;0.80;;
75772;SDS011;64381;0.000;0.000;2023-03-14T10:01:07;2.30;;;0.70;;
75772;SDS011;64381;0.000;0.000;2023-03-14T10:03:39;2.33;;;0.73;;
75772;SDS011;64381;0.000;0.000;2023-03-14T10:06:10;2.42;;;0.80;;
75772;SDS011;64381;0.000;0.000;2023-03-14T10:08:39;2.42;;;0.80;;
75772;SDS011;64381;0.000;0.000;2023-03-14T10:11:05;2.90;;;0.63;;
75772;SDS011;64381;0.000;0.000;2023-03-14T10:13:31;2.30;;;0.70;;
75772;SDS011;64381;0.000;0.000;2023-03-14T10:16:00;2.17;;;0.70;;
75772;SDS011;64381;0.000;0.000;2023-03-14T10:18:28;2.20;;;0.70;;
75772;SDS011;64381;0.000;0.000;2023-03-14T10:21:02;2.10;;;0.80;;
75772;SDS011;64381;0.000;0.000;2023-03-14T10:23:28;2.70;;;0.97;;
75772;SDS011;64381;0.000;0.000;2023-03-14T10:26:02;2.05;;;0.70;;
75772;SDS011;64381;0.000;0.000;2023-03-14T10:28:34;2.20;;;0.80;;
75772;SDS011;64381;0.000;0.000;2023-03-14T10:31:04;2.30;;;0.80;;
75772;SDS011;64381;0.000;0.000;2023-03-14T10:33:31;2.10;;;0.80;;
75772;SDS011;64381;0.000;0.000;2023-03-14T10:36:02;2.60;;;0.80;;
75772;SDS011;64381;0.000;0.000;2023-03-14T10:38:31;2.50;;;0.70;;
75772;SDS011;64381;0.000;0.000;2023-03-14T10:40:58;2.08;;;0.70;;
75772;SDS011;64381;0.000;0.000;2023-03-14T10:43:30;2.20;;;0.70;;
75772;SDS011;64381;0.000;0.000;2023-03-14T10:45:59;2.50;;;0.70;;
75772;SDS011;64381;0.000;0.000;2023-03-14T10:48:34;2.60;;;0.80;;
75772;SDS011;64381;0.000;0.000;2023-03-14T10:51:06;2.40;;;0.90;;
75772;SDS011;64381;0.000;0.000;2023-03-14T10:53:45;2.03;;;0.65;;
75772;SDS011;64381;0.000;0.000;2023-03-14T10:56:21;2.30;;;0.70;;
75772;SDS011;64381;0.000;0.000;2023-03-14T10:58:49;2.15;;;0.70;;
75772;SDS011;64381;0.000;0.000;2023-03-14T11:12:15;2.30;;;0.70;;
75772;SDS011;64381;0.000;0.000;2023-03-14T11:14:49;2.10;;;0.80;;
75772;SDS011;64381;0.000;0.000;2023-03-14T11:17:21;2.30;;;0.70;;
75772;SDS011;64381;0.000;0.000;2023-03-14T11:20:12;2.20;;;0.80;;
75772;SDS011;64381;0.000;0.000;2023-03-14T11:33:37;2.42;;;0.82;;
75772;SDS011;64381;0.000;0.000;2023-03-14T11:36:11;1.90;;;0.60;;
75772;SDS011;64381;0.000;0.000;2023-03-14T11:38:49;2.40;;;0.70;;
75772;SDS011;64381;0.000;0.000;2023-03-14T11:41:18;2.25;;;0.70;;
75772;SDS011;64381;0.000;0.000;2023-03-14T11:43:48;2.30;;;0.80;;
75772;SDS011;64381;0.000;0.000;2023-03-14T11:46:25;2.50;;;0.70;;
75772;SDS011;64381;0.000;0.000;2023-03-14T11:51:50;2.13;;;0.80;;
75772;SDS011;64381;0.000;0.000;2023-03-14T11:57:24;2.30;;;0.70;;
75772;SDS011;64381;0.000;0.000;2023-03-14T11:59:55;2.20;;;0.70;;
75772;SDS011;64381;0.000;0.000;2023-03-14T12:07:29;2.30;;;0.75;;
75772;SDS011;64381;0.000;0.000;2023-03-14T12:10:03;2.55;;;0.60;;
75772;SDS011;64381;0.000;0.000;2023-03-14T12:12:29;2.13;;;0.70;;
75772;SDS011;64381;0.000;0.000;2023-03-14T12:15:00;2.33;;;0.77;;
75772;SDS011;64381;0.000;0.000;2023-03-14T12:17:39;2.30;;;0.80;;
75772;SDS011;64381;0.000;0.000;2023-03-14T12:20:20;2.20;;;0.70;;
75772;SDS011;64381;0.000;0.000;2023-03-14T12:22:53;2.30;;;0.80;;
75772;SDS011;64381;0.000;0.000;2023-03-14T12:25:21;2.57;;;0.90;;
75772;SDS011;64381;0.000;0.000;2023-03-14T12:27:48;2.08;;;0.68;;
75772;SDS011;64381;0.000;0.000;2023-03-14T12:30:52;2.38;;;0.60;;
75772;SDS011;64381;0.000;0.000;2023-03-14T12:35:45;2.10;;;0.75;;
75772;SDS011;64381;0.000;0.000;2023-03-14T12:38:57;2.43;;;0.80;;
75772;SDS011;64381;0.000;0.000;2023-03-14T12:41:01;2.20;;;0.80;;
75772;SDS011;64381;0.000;0.000;2023-03-14T12:43:33;1.90;;;0.57;;
75772;SDS011;64381;0.000;0.000;2023-03-14T12:48:46;2.10;;;0.77;;
75772;SDS011;64381;0.000;0.000;2023-03-14T12:51:17;2.10;;;0.70;;
75772;SDS011;64381;0.000;0.000;2023-03-14T12:56:40;2.50;;;0.80;;
75772;SDS011;64381;0.000;0.000;2023-03-14T13:01:46;2.17;;;0.80;;
75772;SDS011;64381;0.000;0.000;2023-03-14T13:04:18;2.20;;;0.80;;
75772;SDS011;64381;0.000;0.000;2023-03-14T13:06:48;2.40;;;0.80;;
75772;SDS011;64381;0.000;0.000;2023-03-14T13:11:56;1.90;;;0.68;;
75772;SDS011;64381;0.000;0.000;2023-03-14T13:14:27;2.17;;;0.68;;
75772;SDS011;64381;0.000;0.000;2023-03-14T13:16:54;1.92;;;0.68;;
75772;SDS011;64381;0.000;0.000;2023-03-14T13:19:26;2.20;;;0.60;;
75772;SDS011;64381;0.000;0.000;2023-03-14T13:22:01;2.00;;;0.60;;
75772;SDS011;64381;0.000;0.000;2023-03-14T13:24:28;2.25;;;0.80;;
75772;SDS011;64381;0.000;0.000;2023-03-14T13:26:54;2.53;;;0.60;;
75772;SDS011;64381;0.000;0.000;2023-03-14T13:29:28;2.20;;;0.70;;
75772;SDS011;64381;0.000;0.000;2023-03-14T13:31:55;2.30;;;0.80;;
75772;SDS011;64381;0.000;0.000;2023-03-14T13:34:21;2.35;;;0.60;;
75772;SDS011;64381;0.000;0.000;2023-03-14T13:36:59;1.80;;;0.52;;
75772;SDS011;64381;0.000;0.000;2023-03-14T13:39:26;2.30;;;0.93;;
75772;SDS011;64381;0.000;0.000;2023-03-14T13:41:52;2.20;;;0.70;;
75772;SDS011;64381;0.000;0.000;2023-03-14T13:44:30;2.10;;;0.60;;
75772;SDS011;64381;0.000;0.000;2023-03-14T13:46:58;2.00;;;0.70;;
75772;SDS011;64381;0.000;0.000;2023-03-14T13:49:25;2.25;;;0.75;;
75772;SDS011;64381;0.000;0.000;2023-03-14T13:51:51;2.07;;;0.70;;
75772;SDS011;64381;0.000;0.000;2023-03-14T13:54:17;2.33;;;0.80;;
75772;SDS011;64381;0.000;0.000;2023-03-14T13:56:44;2.37;;;0.70;;
75772;SDS011;64381;0.000;0.000;2023-03-14T13:59:26;2.30;;;0.70;;
75772;SDS011;64381;0.000;0.000;2023-03-14T14:01:55;2.37;;;0.80;;
75772;SDS011;64381;0.000;0.000;2023-03-14T14:04:23;2.40;;;0.77;;
75772;SDS011;64381;0.000;0.000;2023-03-14T14:06:50;2.28;;;0.70;;
75772;SDS011;64381;0.000;0.000;2023-03-14T14:09:19;2.58;;;0.60;;
75772;SDS011;64381;0.000;0.000;2023-03-14T14:16:57;2.10;;;0.60;;
75772;SDS011;64381;0.000;0.000;2023-03-14T14:19:24;1.95;;;0.70;;
75772;SDS011;64381;0.000;0.000;2023-03-14T14:21:52;2.15;;;0.63;;
75772;SDS011;64381;0.000;0.000;2023-03-14T14:24:18;2.30;;;0.80;;
75772;SDS011;64381;0.000;0.000;2023-03-14T14:26:54;2.17;;;0.80;;
75772;SDS011;64381;0.000;0.000;2023-03-14T14:29:27;2.20;;;0.70;;
75772;SDS011;64381;0.000;0.000;2023-03-14T14:32:09;2.03;;;0.60;;
75772;SDS011;64381;0.000;0.000;2023-03-14T14:37:21;2.43;;;0.70;;
75772;SDS011;64381;0.000;0.000;2023-03-14T14:39:48;2.30;;;0.80;;
75772;SDS011;64381;0.000;0.000;2023-03-14T14:42:16;2.17;;;0.80;;
75772;SDS011;64381;0.000;0.000;2023-03-14T14:44:45;2.40;;;0.80;;
75772;SDS011;64381;0.000;0.000;2023-03-14T14:47:13;2.23;;;0.70;;
75772;SDS011;64381;0.000;0.000;2023-03-14T14:49:40;2.45;;;0.80;;
75772;SDS011;64381;0.000;0.000;2023-03-14T14:52:11;2.07;;;0.70;;
75772;SDS011;64381;0.000;0.000;2023-03-14T14:54:38;2.20;;;0.80;;
75772;SDS011;64381;0.000;0.000;2023-03-14T14:57:17;2.30;;;0.80;;
75772;SDS011;64381;0.000;0.000;2023-03-14T14:59:54;2.05;;;0.70;;
75772;SDS011;64381;0.000;0.000;2023-03-14T15:04:57;2.17;;;0.75;;
75772;SDS011;64381;0.000;0.000;2023-03-14T15:07:22;2.30;;;0.90;;
75772;SDS011;64381;0.000;0.000;2023-03-14T15:09:47;2.33;;;0.70;;
75772;SDS011;64381;0.000;0.000;2023-03-14T15:12:13;2.00;;;0.70;;
75772;SDS011;64381;0.000;0.000;2023-03-14T15:14:38;2.50;;;0.90;;
75772;SDS011;64381;0.000;0.000;2023-03-14T15:17:03;1.90;;;0.60;;
75772;SDS011;64381;0.000;0.000;2023-03-14T15:19:28;3.17;;;0.70;;
75772;SDS011;64381;0.000;0.000;2023-03-14T15:21:54;2.10;;;0.70;;
75772;SDS011;64381;0.000;0.000;2023-03-14T15:24:19;2.23;;;0.90;;
75772;SDS011;64381;0.000;0.000;2023-03-14T15:26:45;1.98;;;0.70;;
75772;SDS011;64381;0.000;0.000;2023-03-14T15:29:10;2.20;;;0.70;;
75772;SDS011;64381;0.000;0.000;2023-03-14T15:34:05;2.40;;;0.82;;
75772;SDS011;64381;0.000;0.000;2023-03-14T15:36:31;2.00;;;0.70;;
75772;SDS011;64381;0.000;0.000;2023-03-14T15:38:59;2.10;;;0.73;;
75772;SDS011;64381;0.000;0.000;2023-03-14T15:41:25;2.00;;;0.70;;
75772;SDS011;64381;0.000;0.000;2023-03-14T15:43:51;2.33;;;0.80;;
75772;SDS011;64381;0.000;0.000;2023-03-14T15:46:16;2.20;;;0.80;;
75772;SDS011;64381;0.000;0.000;2023-03-14T15:48:42;1.90;;;0.60;;
75772;SDS011;64381;0.000;0.000;2023-03-14T15:51:08;2.28;;;0.70;;
75772;SDS011;64381;0.000;0.000;2023-03-14T15:53:34;2.40;;;0.80;;
75772;SDS011;64381;0.000;0.000;2023-03-14T15:55:59;3.07;;;0.83;;
75772;SDS011;64381;0.000;0.000;2023-03-14T15:58:24;2.20;;;0.80;;
75772;SDS011;64381;0.000;0.000;2023-03-14T16:00:50;1.97;;;0.73;;
75772;SDS011;64381;0.000;0.000;2023-03-14T16:03:15;2.57;;;0.73;;
75772;SDS011;64381;0.000;0.000;2023-03-14T16:05:40;2.00;;;0.60;;
75772;SDS011;64381;0.000;0.000;2023-03-14T16:08:06;2.10;;;0.73;;